Terminal Aerodrome Forecast
Issued by NWS

Current Version | Previous Version | Graphics & Text | Print | Product List | Glossary On
Versions: 1 2 3 4 5 6 7 8 9 10 11 12 13 14 15 16 17 18 19 20 21 22 23 24 25 26 27
000
FTUS41 KILN 021400 AAB
TAFLUK
TAF AMD
KLUK 021414Z 0214/0312 VRB03KT P6SM OVC006
      TEMPO 0214/0216 5SM -SHRA OVC015
     FM021600 13004KT 5SM -SHRA BR OVC025
      TEMPO 0216/0220 2SM -SHRA OVC015
     FM022000 10005KT P6SM VCSH BKN028 OVC040
      TEMPO 0220/0224 5SM -SHRA BR
     FM030000 07006KT P6SM VCSH SCT028 OVC050
     FM030300 03008KT P6SM VCSH SCT028 BKN050=

USA.gov is the U.S. government's official web portal to all federal, state and local government web resources and services.